Time;durP1;ratioP1;P1;durP2;ratioP2;P2;SDS_P1;SDS_P2;PMS_P1;PMS_P2;Temp;Humidity;BMP_temperature;BMP_pressure;BME280_temperature;BME280_humidity;BME280_pressure;Samples;Min_cycle;Max_cycle;Signal;HPM_P1;HPM_P2
2022/02/27 00:00:22;;;;;;;0.40;0.40;;;;;;;;;;5023809;28;20052;-87
2022/02/27 00:02:48;;;;;;;0.70;0.70;;;;;;;;;;5024256;28;20029;-88
2022/02/27 00:05:15;;;;;;;0.50;0.50;;;;;;;;;;5024345;28;20029;-86
2022/02/27 00:07:41;;;;;;;0.40;0.40;;;;;;;;;;5028716;28;20075;-88
2022/02/27 00:10:07;;;;;;;0.40;0.40;;;;;;;;;;5030335;28;20104;-89
2022/02/27 00:12:33;;;;;;;0.40;0.40;;;;;;;;;;5028325;28;20496;-88
2022/02/27 00:14:59;;;;;;;0.45;0.45;;;;;;;;;;5027665;28;20044;-87
2022/02/27 00:17:26;;;;;;;0.50;0.50;;;;;;;;;;5027994;28;20041;-87
2022/02/27 00:19:52;;;;;;;0.50;0.50;;;;;;;;;;5028291;28;23130;-89
2022/02/27 00:22:18;;;;;;;0.32;0.32;;;;;;;;;;5028408;28;20607;-88
2022/02/27 00:24:44;;;;;;;0.30;0.30;;;;;;;;;;5028485;28;20258;-88
2022/02/27 00:27:10;;;;;;;1.20;0.65;;;;;;;;;;5025195;28;20044;-89
2022/02/27 00:29:36;;;;;;;0.20;0.20;;;;;;;;;;5024356;28;20032;-88
2022/02/27 00:32:02;;;;;;;0.40;0.40;;;;;;;;;;5024661;28;20033;-89
2022/02/27 00:34:28;;;;;;;0.38;0.38;;;;;;;;;;5021097;28;20061;-90
2022/02/27 00:36:54;;;;;;;0.40;0.40;;;;;;;;;;5023607;28;20036;-88
2022/02/27 00:39:20;;;;;;;0.40;0.40;;;;;;;;;;5024150;28;20407;-89
2022/02/27 00:41:46;;;;;;;0.40;0.40;;;;;;;;;;5024105;28;20041;-89
2022/02/27 00:44:12;;;;;;;0.40;0.40;;;;;;;;;;5023533;28;20055;-87
2022/02/27 00:46:38;;;;;;;0.50;0.50;;;;;;;;;;5022562;28;20086;-87
2022/02/27 00:49:04;;;;;;;0.68;0.68;;;;;;;;;;5023195;28;20117;-86
2022/02/27 00:51:32;;;;;;;0.50;0.50;;;;;;;;;;5023131;28;20037;-87
2022/02/27 00:53:58;;;;;;;0.40;0.40;;;;;;;;;;5022825;28;20029;-90
2022/02/27 00:56:24;;;;;;;0.40;0.40;;;;;;;;;;5023570;28;20457;-87
2022/02/27 00:58:51;;;;;;;0.40;0.40;;;;;;;;;;5023173;28;20045;-88
2022/02/27 01:01:18;;;;;;;0.40;0.40;;;;;;;;;;5022860;28;20621;-88
2022/02/27 01:03:44;;;;;;;0.40;0.40;;;;;;;;;;5018087;28;20036;-88
2022/02/27 01:06:10;;;;;;;1.63;0.83;;;;;;;;;;5021141;28;20566;-78
2022/02/27 01:08:36;;;;;;;0.40;0.40;;;;;;;;;;5022346;28;20526;-78
2022/02/27 01:11:02;;;;;;;0.47;0.47;;;;;;;;;;5021831;28;20033;-78
2022/02/27 01:13:28;;;;;;;0.40;0.40;;;;;;;;;;5022398;28;20036;-78
2022/02/27 01:15:54;;;;;;;0.40;0.40;;;;;;;;;;5032743;28;20453;-79
2022/02/27 01:18:20;;;;;;;0.40;0.40;;;;;;;;;;5017640;28;20915;-79
2022/02/27 01:20:46;;;;;;;0.50;0.50;;;;;;;;;;5013812;28;20576;-79
2022/02/27 01:23:12;;;;;;;0.50;0.50;;;;;;;;;;5008111;28;20111;-79
2022/02/27 01:25:39;;;;;;;0.40;0.40;;;;;;;;;;5022236;28;20811;-79
2022/02/27 01:28:05;;;;;;;0.40;0.40;;;;;;;;;;5023015;28;20026;-76
2022/02/27 01:30:31;;;;;;;0.50;0.50;;;;;;;;;;5022120;28;20061;-80
2022/02/27 01:32:57;;;;;;;0.40;0.40;;;;;;;;;;5022055;28;20523;-80
2022/02/27 01:35:23;;;;;;;0.40;0.40;;;;;;;;;;5021853;28;20033;-80
2022/02/27 01:37:49;;;;;;;0.50;0.50;;;;;;;;;;5021867;28;20039;-79
2022/02/27 01:40:15;;;;;;;0.40;0.40;;;;;;;;;;5022556;28;20026;-79
2022/02/27 01:42:41;;;;;;;0.40;0.40;;;;;;;;;;5021759;28;20536;-79
2022/02/27 01:45:07;;;;;;;0.40;0.40;;;;;;;;;;5021556;28;20028;-79
2022/02/27 01:47:34;;;;;;;0.45;0.45;;;;;;;;;;5022000;28;20026;-80
2022/02/27 01:50:00;;;;;;;0.43;0.43;;;;;;;;;;5006522;28;20033;-80
2022/02/27 01:52:26;;;;;;;0.40;0.40;;;;;;;;;;5022149;28;20076;-78
2022/02/27 01:54:52;;;;;;;0.50;0.50;;;;;;;;;;5021678;28;20505;-80
2022/02/27 01:57:19;;;;;;;0.60;0.57;;;;;;;;;;5021721;28;20054;-79
2022/02/27 01:59:45;;;;;;;0.40;0.40;;;;;;;;;;5021633;28;20424;-79
2022/02/27 02:02:11;;;;;;;0.40;0.40;;;;;;;;;;5021924;28;20075;-79
2022/02/27 02:04:38;;;;;;;0.40;0.40;;;;;;;;;;5022411;28;20026;-77
2022/02/27 02:07:05;;;;;;;0.30;0.30;;;;;;;;;;5021392;28;20018;-77
2022/02/27 02:09:31;;;;;;;0.75;0.75;;;;;;;;;;5021479;28;20087;-77
2022/02/27 02:11:57;;;;;;;0.40;0.40;;;;;;;;;;5021540;28;20033;-78
2022/02/27 02:14:23;;;;;;;0.30;0.30;;;;;;;;;;5020865;28;20420;-78
2022/02/27 02:16:50;;;;;;;0.30;0.30;;;;;;;;;;5023979;28;20033;-78
2022/02/27 02:19:16;;;;;;;0.55;0.55;;;;;;;;;;5025999;28;20041;-79
2022/02/27 02:21:47;;;;;;;0.30;0.30;;;;;;;;;;5024715;28;20273;-78
2022/02/27 02:24:14;;;;;;;0.38;0.38;;;;;;;;;;5025483;28;20033;-79
2022/02/27 02:26:40;;;;;;;0.40;0.40;;;;;;;;;;5024758;28;20033;-79
2022/02/27 02:29:07;;;;;;;0.30;0.30;;;;;;;;;;5024762;28;20055;-78
2022/02/27 02:31:36;;;;;;;;;;;;;;;;;;5025370;28;20039;-77
2022/02/27 02:34:05;;;;;;;0.40;0.40;;;;;;;;;;5024870;28;19919;-76
2022/02/27 02:36:31;;;;;;;0.50;0.50;;;;;;;;;;5021814;28;20120;-77
2022/02/27 02:38:58;;;;;;;0.40;0.40;;;;;;;;;;5025370;28;20056;-77
2022/02/27 02:41:24;;;;;;;0.50;0.50;;;;;;;;;;5025086;28;20113;-77
2022/02/27 02:43:50;;;;;;;0.40;0.40;;;;;;;;;;5024952;28;20068;-80
2022/02/27 02:46:16;;;;;;;0.40;0.40;;;;;;;;;;5025485;28;20032;-80
2022/02/27 02:48:42;;;;;;;0.40;0.40;;;;;;;;;;5024704;28;20095;-80
2022/02/27 02:51:08;;;;;;;0.52;0.52;;;;;;;;;;5024618;28;20052;-82
2022/02/27 02:53:39;;;;;;;0.30;0.30;;;;;;;;;;5024824;28;20759;-81
2022/02/27 02:56:05;;;;;;;0.40;0.40;;;;;;;;;;5009592;28;20029;-79
2022/02/27 02:58:36;;;;;;;0.55;0.55;;;;;;;;;;5025367;28;20525;-79
2022/02/27 03:01:02;;;;;;;0.40;0.40;;;;;;;;;;5024602;28;20050;-79
2022/02/27 03:03:28;;;;;;;0.43;0.43;;;;;;;;;;5025608;28;20029;-79
2022/02/27 03:05:54;;;;;;;0.40;0.40;;;;;;;;;;5033563;28;20037;-89
2022/02/27 03:08:20;;;;;;;0.40;0.40;;;;;;;;;;5036381;28;20033;-89
2022/02/27 03:10:47;;;;;;;0.60;0.60;;;;;;;;;;5026014;28;20128;-89
2022/02/27 03:13:13;;;;;;;1.98;0.77;;;;;;;;;;5024749;28;20954;-92
2022/02/27 03:15:39;;;;;;;0.43;0.43;;;;;;;;;;5026632;28;20091;-89
2022/02/27 03:18:05;;;;;;;0.40;0.40;;;;;;;;;;5026079;28;20037;-90
2022/02/27 03:20:31;;;;;;;0.63;0.63;;;;;;;;;;5027139;28;20025;-89
2022/02/27 03:22:57;;;;;;;0.30;0.30;;;;;;;;;;5024697;28;20026;-86
2022/02/27 03:25:23;;;;;;;0.97;0.60;;;;;;;;;;5024474;28;20085;-87
2022/02/27 03:27:50;;;;;;;0.40;0.40;;;;;;;;;;5023532;28;20283;-87
2022/02/27 03:30:16;;;;;;;0.40;0.40;;;;;;;;;;5024575;28;20408;-88
2022/02/27 03:32:46;;;;;;;0.40;0.40;;;;;;;;;;5023701;28;20797;-88
2022/02/27 03:35:13;;;;;;;0.32;0.32;;;;;;;;;;5024140;28;20047;-90
2022/02/27 03:37:39;;;;;;;0.30;0.30;;;;;;;;;;5027999;28;20033;-87
2022/02/27 03:40:06;;;;;;;0.40;0.40;;;;;;;;;;5024150;28;20025;-86
2022/02/27 03:42:32;;;;;;;0.40;0.40;;;;;;;;;;5023991;28;20304;-86
2022/02/27 03:44:58;;;;;;;0.50;0.50;;;;;;;;;;5023599;28;20041;-88
2022/02/27 03:47:24;;;;;;;0.30;0.30;;;;;;;;;;5024310;28;20033;-86
2022/02/27 03:49:50;;;;;;;0.30;0.30;;;;;;;;;;5023380;28;20839;-87
2022/02/27 03:52:17;;;;;;;0.30;0.30;;;;;;;;;;5024761;28;20037;-90
2022/02/27 03:54:43;;;;;;;0.30;0.30;;;;;;;;;;5025329;28;20052;-89
2022/02/27 03:57:09;;;;;;;0.37;0.37;;;;;;;;;;5025819;28;20371;-88
2022/02/27 03:59:35;;;;;;;0.30;0.30;;;;;;;;;;5025234;28;20343;-89
2022/02/27 04:02:01;;;;;;;0.28;0.28;;;;;;;;;;5025303;28;20044;-89
2022/02/27 04:04:27;;;;;;;0.30;0.30;;;;;;;;;;5026125;28;20034;-88
2022/02/27 04:06:53;;;;;;;0.30;0.30;;;;;;;;;;5023975;28;20044;-80
2022/02/27 04:09:19;;;;;;;0.30;0.30;;;;;;;;;;5023315;28;20581;-78
2022/02/27 04:11:45;;;;;;;0.32;0.32;;;;;;;;;;5024990;28;20044;-78
2022/02/27 04:14:11;;;;;;;0.40;0.40;;;;;;;;;;5022954;28;20045;-79
2022/02/27 04:16:37;;;;;;;0.40;0.40;;;;;;;;;;5023224;28;20033;-78
2022/02/27 04:19:03;;;;;;;0.40;0.40;;;;;;;;;;5023179;28;20630;-78
2022/02/27 04:21:29;;;;;;;0.40;0.40;;;;;;;;;;5022604;28;20343;-78
2022/02/27 04:23:56;;;;;;;0.40;0.40;;;;;;;;;;5023031;28;20057;-78
2022/02/27 04:26:22;;;;;;;0.63;0.63;;;;;;;;;;5022546;28;20034;-78
2022/02/27 04:28:48;;;;;;;0.30;0.30;;;;;;;;;;5022744;28;20030;-78
2022/02/27 04:31:14;;;;;;;0.40;0.40;;;;;;;;;;5021359;28;20029;-78
2022/02/27 04:33:40;;;;;;;0.40;0.40;;;;;;;;;;5018142;28;20041;-78
2022/02/27 04:36:06;;;;;;;0.40;0.40;;;;;;;;;;5022590;28;20280;-78
2022/02/27 04:38:32;;;;;;;0.40;0.40;;;;;;;;;;5022414;28;20562;-80
2022/02/27 04:40:58;;;;;;;0.45;0.45;;;;;;;;;;5022772;28;20444;-79
2022/02/27 04:43:25;;;;;;;0.40;0.40;;;;;;;;;;5023150;28;20064;-79
2022/02/27 04:45:51;;;;;;;0.40;0.40;;;;;;;;;;5022635;28;20056;-79
2022/02/27 04:48:17;;;;;;;0.40;0.40;;;;;;;;;;5023097;28;20052;-79
2022/02/27 04:50:43;;;;;;;0.93;0.93;;;;;;;;;;5022692;28;20037;-78
2022/02/27 04:53:09;;;;;;;0.40;0.40;;;;;;;;;;5022461;28;20228;-79
2022/02/27 04:55:35;;;;;;;0.40;0.40;;;;;;;;;;5022567;28;20101;-78
2022/02/27 04:58:01;;;;;;;0.40;0.40;;;;;;;;;;5022343;28;20049;-78
2022/02/27 05:00:27;;;;;;;0.40;0.40;;;;;;;;;;5022769;28;20091;-78
2022/02/27 05:02:53;;;;;;;0.40;0.40;;;;;;;;;;5022318;28;20097;-77
2022/02/27 05:05:19;;;;;;;0.30;0.30;;;;;;;;;;5021760;28;20047;-82
2022/02/27 05:07:45;;;;;;;0.40;0.40;;;;;;;;;;5022253;28;20041;-87
2022/02/27 05:10:11;;;;;;;0.40;0.40;;;;;;;;;;5025077;28;20113;-88
2022/02/27 05:12:38;;;;;;;0.40;0.40;;;;;;;;;;5025785;28;20036;-88
2022/02/27 05:15:05;;;;;;;0.40;0.40;;;;;;;;;;5022421;28;20455;-89
2022/02/27 05:17:31;;;;;;;0.40;0.40;;;;;;;;;;5024100;28;20071;-89
2022/02/27 05:19:57;;;;;;;0.40;0.40;;;;;;;;;;5024202;28;20116;-88
2022/02/27 05:22:23;;;;;;;0.40;0.40;;;;;;;;;;5025124;28;20050;-90
2022/02/27 05:24:49;;;;;;;0.30;0.30;;;;;;;;;;5022436;28;20447;-87
2022/02/27 05:27:15;;;;;;;0.40;0.40;;;;;;;;;;5023377;28;20049;-92
2022/02/27 05:29:41;;;;;;;2.33;1.10;;;;;;;;;;5026560;28;20053;-91
2022/02/27 05:32:07;;;;;;;0.40;0.40;;;;;;;;;;5027344;28;20088;-91
2022/02/27 05:34:33;;;;;;;1.30;0.67;;;;;;;;;;5027655;28;20570;-90
2022/02/27 05:36:59;;;;;;;0.20;0.20;;;;;;;;;;5020723;28;20578;-92
2022/02/27 05:39:26;;;;;;;2.33;0.43;;;;;;;;;;5022330;28;20029;-88
2022/02/27 05:41:52;;;;;;;0.10;0.10;;;;;;;;;;5021832;28;20038;-88
2022/02/27 05:44:18;;;;;;;0.10;0.10;;;;;;;;;;5026054;28;20029;-91
2022/02/27 05:46:44;;;;;;;0.10;0.10;;;;;;;;;;5025871;28;20580;-92
2022/02/27 05:49:10;;;;;;;0.10;0.10;;;;;;;;;;5026425;28;21120;-91
2022/02/27 05:51:36;;;;;;;0.40;0.40;;;;;;;;;;5030399;28;20033;-89
2022/02/27 05:54:02;;;;;;;0.20;0.20;;;;;;;;;;5027938;28;20029;-87
2022/02/27 05:56:28;;;;;;;1.63;0.43;;;;;;;;;;5026959;28;20032;-88
2022/02/27 05:58:55;;;;;;;0.20;0.20;;;;;;;;;;5030108;28;20053;-89
2022/02/27 06:01:21;;;;;;;0.20;0.20;;;;;;;;;;5028931;28;20046;-90
2022/02/27 06:03:47;;;;;;;0.20;0.20;;;;;;;;;;5027634;28;20117;-88
2022/02/27 06:06:14;;;;;;;0.25;0.25;;;;;;;;;;5026270;28;20053;-88
2022/02/27 06:08:40;;;;;;;0.20;0.20;;;;;;;;;;5024263;28;20580;-88
2022/02/27 06:11:06;;;;;;;0.30;0.30;;;;;;;;;;5031330;28;20040;-91
2022/02/27 06:13:32;;;;;;;0.30;0.30;;;;;;;;;;5029269;28;20030;-89
2022/02/27 06:15:58;;;;;;;0.20;0.20;;;;;;;;;;5026586;28;20501;-84
2022/02/27 06:18:24;;;;;;;0.20;0.20;;;;;;;;;;5025565;28;20021;-87
2022/02/27 06:20:50;;;;;;;0.75;0.73;;;;;;;;;;5024532;28;20025;-83
2022/02/27 06:23:16;;;;;;;0.20;0.20;;;;;;;;;;5025677;28;20048;-87
2022/02/27 06:25:42;;;;;;;3.75;0.63;;;;;;;;;;5025916;28;20116;-87
2022/02/27 06:28:08;;;;;;;0.20;0.20;;;;;;;;;;5025387;28;20025;-86
2022/02/27 06:30:34;;;;;;;0.30;0.30;;;;;;;;;;5025028;28;20064;-86
2022/02/27 06:33:00;;;;;;;0.25;0.25;;;;;;;;;;5024836;28;20114;-85
2022/02/27 06:35:26;;;;;;;0.30;0.30;;;;;;;;;;5024834;28;20033;-85
2022/02/27 06:37:53;;;;;;;1.03;0.90;;;;;;;;;;5023954;28;20798;-87
2022/02/27 06:40:19;;;;;;;0.25;0.25;;;;;;;;;;5025364;28;20041;-87
2022/02/27 06:42:46;;;;;;;0.30;0.30;;;;;;;;;;5022286;28;20067;-84
2022/02/27 06:45:13;;;;;;;0.30;0.30;;;;;;;;;;5024164;28;20029;-85
2022/02/27 06:47:39;;;;;;;;;;;;;;;;;;5025191;28;20033;-85
2022/02/27 06:50:05;;;;;;;0.20;0.20;;;;;;;;;;5025024;28;19913;-85
2022/02/27 06:52:31;;;;;;;0.10;0.10;;;;;;;;;;5025020;28;20044;-86
2022/02/27 06:54:57;;;;;;;0.10;0.10;;;;;;;;;;5022961;28;20037;-84
2022/02/27 06:57:23;;;;;;;0.40;0.40;;;;;;;;;;5021582;28;20107;-86
2022/02/27 06:59:49;;;;;;;0.20;0.20;;;;;;;;;;5024703;28;20046;-85
2022/02/27 07:02:16;;;;;;;0.30;0.30;;;;;;;;;;5023590;28;20045;-82
2022/02/27 07:04:42;;;;;;;0.28;0.28;;;;;;;;;;5023755;28;20120;-82
2022/02/27 07:07:08;;;;;;;0.20;0.20;;;;;;;;;;5025013;28;20038;-82
2022/02/27 07:09:34;;;;;;;0.30;0.30;;;;;;;;;;5023280;28;20732;-82
2022/02/27 07:12:00;;;;;;;0.68;0.68;;;;;;;;;;5025201;28;20199;-82
2022/02/27 07:14:26;;;;;;;0.20;0.20;;;;;;;;;;5024059;28;20117;-85
2022/02/27 07:16:52;;;;;;;0.30;0.30;;;;;;;;;;5026761;28;20450;-91
2022/02/27 07:19:18;;;;;;;0.32;0.32;;;;;;;;;;5023589;28;20482;-93
2022/02/27 07:21:44;;;;;;;0.20;0.20;;;;;;;;;;5030524;28;20426;-91
2022/02/27 07:24:10;;;;;;;0.50;0.50;;;;;;;;;;5029787;28;20053;-91
2022/02/27 07:26:36;;;;;;;0.10;0.10;;;;;;;;;;5024758;28;20083;-85
2022/02/27 07:29:03;;;;;;;0.20;0.20;;;;;;;;;;5023937;28;20069;-86
2022/02/27 07:31:30;;;;;;;0.15;0.15;;;;;;;;;;5025050;28;20033;-88
2022/02/27 07:33:56;;;;;;;;;;;;;;;;;;5024577;28;20045;-88
2022/02/27 07:36:22;;;;;;;0.35;0.35;;;;;;;;;;5023474;28;19913;-84
2022/02/27 07:38:48;;;;;;;0.23;0.23;;;;;;;;;;5023166;28;20562;-86
2022/02/27 07:41:14;;;;;;;0.10;0.10;;;;;;;;;;5022173;28;20060;-86
2022/02/27 07:43:40;;;;;;;0.20;0.20;;;;;;;;;;5023806;28;20033;-86
2022/02/27 07:46:06;;;;;;;0.28;0.25;;;;;;;;;;5023554;28;20029;-85
2022/02/27 07:48:32;;;;;;;0.20;0.20;;;;;;;;;;5023188;28;20106;-86
2022/02/27 07:50:58;;;;;;;0.30;0.30;;;;;;;;;;5021263;28;20475;-82
2022/02/27 07:53:24;;;;;;;0.63;0.63;;;;;;;;;;5021244;28;20057;-79
2022/02/27 07:55:50;;;;;;;1.05;0.95;;;;;;;;;;5021717;28;20681;-80
2022/02/27 07:58:16;;;;;;;0.35;0.35;;;;;;;;;;5023310;28;20041;-81
2022/02/27 08:00:42;;;;;;;0.20;0.20;;;;;;;;;;5023003;28;20040;-81
2022/02/27 08:03:08;;;;;;;0.10;0.10;;;;;;;;;;5023400;28;20025;-80
2022/02/27 08:05:35;;;;;;;0.10;0.10;;;;;;;;;;5023169;28;20154;-82
2022/02/27 08:08:01;;;;;;;0.10;0.10;;;;;;;;;;5021249;28;20149;-84
2022/02/27 08:10:27;;;;;;;0.10;0.10;;;;;;;;;;5025186;28;20652;-83
2022/02/27 08:12:54;;;;;;;0.10;0.10;;;;;;;;;;5019122;28;20072;-84
2022/02/27 08:15:20;;;;;;;0.10;0.10;;;;;;;;;;5021443;28;20035;-86
2022/02/27 08:17:46;;;;;;;0.33;0.33;;;;;;;;;;5020410;28;20037;-84
2022/02/27 08:20:13;;;;;;;0.20;0.20;;;;;;;;;;5020245;28;20283;-86
2022/02/27 08:22:40;;;;;;;0.50;0.50;;;;;;;;;;5019007;28;20048;-79
2022/02/27 08:25:11;;;;;;;0.10;0.10;;;;;;;;;;5019374;28;20033;-81
2022/02/27 08:27:37;;;;;;;12.40;0.32;;;;;;;;;;5018845;28;20148;-83
2022/02/27 08:30:04;;;;;;;0.13;0.13;;;;;;;;;;5018293;28;20555;-80
2022/02/27 08:32:30;;;;;;;0.20;0.20;;;;;;;;;;5019245;28;20029;-84
2022/02/27 08:34:56;;;;;;;0.40;0.40;;;;;;;;;;5019341;28;20037;-86
2022/02/27 08:37:22;;;;;;;1.08;0.40;;;;;;;;;;5021372;28;20053;-85
2022/02/27 08:39:48;;;;;;;0.10;0.10;;;;;;;;;;5022525;28;20076;-86
2022/02/27 08:42:14;;;;;;;0.27;0.27;;;;;;;;;;5022515;28;20041;-84
2022/02/27 08:44:40;;;;;;;0.20;0.20;;;;;;;;;;5020965;28;20312;-82
2022/02/27 08:47:06;;;;;;;0.20;0.20;;;;;;;;;;5019278;28;21834;-85
2022/02/27 08:49:34;;;;;;;0.10;0.10;;;;;;;;;;5022795;28;20393;-80
2022/02/27 08:52:00;;;;;;;0.10;0.10;;;;;;;;;;5018290;28;20532;-80
2022/02/27 08:54:26;;;;;;;0.10;0.10;;;;;;;;;;5021008;28;20025;-81
2022/02/27 08:56:52;;;;;;;0.13;0.13;;;;;;;;;;5021009;28;20036;-78
2022/02/27 08:59:18;;;;;;;1.50;0.50;;;;;;;;;;5021055;28;20645;-78
2022/02/27 09:01:44;;;;;;;10.53;0.60;;;;;;;;;;5019644;28;20041;-78
2022/02/27 09:04:11;;;;;;;0.63;0.40;;;;;;;;;;5021523;28;20737;-78
2022/02/27 09:06:37;;;;;;;0.10;0.10;;;;;;;;;;5021507;28;20033;-77
2022/02/27 09:09:03;;;;;;;0.20;0.20;;;;;;;;;;5017197;28;20267;-77
2022/02/27 09:11:29;;;;;;;0.10;0.10;;;;;;;;;;5018750;28;20284;-79
2022/02/27 09:13:55;;;;;;;0.30;0.30;;;;;;;;;;5017118;28;20068;-79
2022/02/27 09:16:21;;;;;;;0.20;0.20;;;;;;;;;;5017837;28;20138;-81
2022/02/27 09:18:47;;;;;;;0.10;0.10;;;;;;;;;;5018619;28;20029;-79
2022/02/27 09:21:14;;;;;;;0.10;0.10;;;;;;;;;;5020614;28;20124;-79
2022/02/27 09:23:40;;;;;;;0.20;0.20;;;;;;;;;;5018912;28;20053;-80
2022/02/27 09:26:06;;;;;;;0.10;0.10;;;;;;;;;;5022995;28;20280;-79
2022/02/27 09:28:32;;;;;;;0.30;0.30;;;;;;;;;;5026536;28;20025;-79
2022/02/27 09:30:58;;;;;;;0.10;0.10;;;;;;;;;;5025884;28;20033;-82
2022/02/27 09:33:25;;;;;;;0.10;0.10;;;;;;;;;;5026601;28;20040;-79
2022/02/27 09:35:53;;;;;;;0.20;0.20;;;;;;;;;;5027675;28;20041;-80
2022/02/27 09:38:20;;;;;;;0.20;0.20;;;;;;;;;;5026576;28;20413;-79
2022/02/27 09:40:49;;;;;;;0.10;0.10;;;;;;;;;;5025390;28;20056;-78
2022/02/27 09:43:16;;;;;;;0.20;0.20;;;;;;;;;;5025922;28;20635;-78
2022/02/27 09:45:44;;;;;;;0.20;0.20;;;;;;;;;;5026463;28;20047;-78
2022/02/27 09:48:11;;;;;;;0.30;0.30;;;;;;;;;;5025262;28;20029;-79
2022/02/27 09:50:37;;;;;;;0.20;0.20;;;;;;;;;;5024751;28;20394;-78
2022/02/27 09:53:04;;;;;;;0.20;0.20;;;;;;;;;;5024741;28;20065;-78
2022/02/27 09:55:30;;;;;;;0.20;0.20;;;;;;;;;;5024371;28;20039;-80
2022/02/27 09:57:56;;;;;;;0.43;0.43;;;;;;;;;;5024934;28;20067;-77
2022/02/27 10:00:22;;;;;;;0.20;0.20;;;;;;;;;;5023231;28;20280;-81
2022/02/27 10:03:03;;;;;;;2.15;0.65;;;;;;;;;;5024223;28;20041;-79
2022/02/27 10:05:29;;;;;;;0.32;0.32;;;;;;;;;;5025063;28;20040;-84
2022/02/27 10:07:59;;;;;;;0.43;0.43;;;;;;;;;;5027234;28;20117;-79
2022/02/27 10:10:26;;;;;;;0.30;0.30;;;;;;;;;;5027411;28;20776;-81
2022/02/27 10:12:52;;;;;;;0.40;0.40;;;;;;;;;;5027064;28;20041;-81
2022/02/27 10:15:19;;;;;;;0.20;0.20;;;;;;;;;;5027839;28;20148;-80
2022/02/27 10:17:45;;;;;;;0.20;0.20;;;;;;;;;;5023068;28;20029;-79
2022/02/27 10:20:12;;;;;;;0.20;0.20;;;;;;;;;;5023760;28;20037;-80
2022/02/27 10:22:39;;;;;;;0.35;0.35;;;;;;;;;;5024257;28;20052;-79
2022/02/27 10:25:08;;;;;;;;;;;;;;;;;;5034433;28;20560;-80
2022/02/27 10:27:42;;;;;;;0.20;0.20;;;;;;;;;;5023427;28;20576;-79
2022/02/27 10:30:14;;;;;;;0.52;0.52;;;;;;;;;;5027740;28;20454;-79
2022/02/27 10:32:51;;;;;;;0.25;0.25;;;;;;;;;;5026846;28;20405;-79
2022/02/27 10:35:32;;;;;;;0.50;0.50;;;;;;;;;;5025982;28;20092;-79
2022/02/27 10:37:59;;;;;;;0.20;0.20;;;;;;;;;;5023296;28;20034;-80
2022/02/27 10:40:35;;;;;;;0.20;0.20;;;;;;;;;;5024401;28;20057;-80
2022/02/27 10:43:05;;;;;;;0.10;0.10;;;;;;;;;;5018118;28;20342;-80
2022/02/27 10:45:31;;;;;;;0.30;0.30;;;;;;;;;;5018434;28;20036;-79
2022/02/27 10:48:01;;;;;;;0.27;0.27;;;;;;;;;;5021774;28;20037;-79
2022/02/27 10:50:28;;;;;;;0.30;0.30;;;;;;;;;;5024184;28;20033;-79
2022/02/27 10:52:54;;;;;;;0.30;0.30;;;;;;;;;;5023089;28;20028;-79
2022/02/27 10:55:20;;;;;;;0.53;0.53;;;;;;;;;;5022098;28;20037;-79
2022/02/27 10:57:48;;;;;;;0.20;0.20;;;;;;;;;;5023312;28;20287;-79
2022/02/27 11:00:17;;;;;;;0.20;0.20;;;;;;;;;;5022596;28;20492;-84
2022/02/27 11:02:44;;;;;;;0.22;0.22;;;;;;;;;;5021706;28;20063;-79
2022/02/27 11:05:11;;;;;;;0.22;0.22;;;;;;;;;;5028331;28;20021;-86
2022/02/27 11:07:37;;;;;;;;;;;;;;;;;;5023080;28;20037;-79
2022/02/27 11:10:03;;;;;;;0.30;0.30;;;;;;;;;;5024171;28;19913;-80
2022/02/27 11:12:30;;;;;;;0.20;0.20;;;;;;;;;;5025999;28;20049;-80
2022/02/27 11:14:56;;;;;;;0.30;0.30;;;;;;;;;;5023226;28;20044;-79
2022/02/27 11:17:23;;;;;;;0.30;0.30;;;;;;;;;;5022729;28;20120;-79
2022/02/27 11:19:50;;;;;;;0.20;0.20;;;;;;;;;;5024177;28;20808;-79
2022/02/27 11:22:16;;;;;;;;;;;;;;;;;;5022087;28;20578;-80
2022/02/27 11:24:43;;;;;;;0.63;0.63;;;;;;;;;;5024282;28;19913;-79
2022/02/27 11:27:09;;;;;;;0.40;0.40;;;;;;;;;;5023701;28;20026;-79
2022/02/27 11:29:35;;;;;;;0.50;0.50;;;;;;;;;;5021239;28;20033;-81
2022/02/27 11:32:01;;;;;;;0.30;0.30;;;;;;;;;;5019668;28;20284;-81
2022/02/27 11:34:29;;;;;;;0.30;0.30;;;;;;;;;;5021194;28;20045;-81
2022/02/27 11:36:55;;;;;;;0.30;0.30;;;;;;;;;;5021041;28;20102;-80
2022/02/27 11:42:06;;;;;;;0.20;0.20;;;;;;;;;;5024451;28;19927;-80
2022/02/27 11:44:36;;;;;;;0.30;0.30;;;;;;;;;;5023506;28;20064;-80
2022/02/27 11:47:04;;;;;;;0.30;0.30;;;;;;;;;;5023679;28;20111;-80
2022/02/27 11:49:30;;;;;;;0.30;0.30;;;;;;;;;;5023639;28;20037;-80
2022/02/27 11:52:12;;;;;;;0.30;0.30;;;;;;;;;;5023643;28;20132;-80
2022/02/27 11:54:45;;;;;;;0.30;0.30;;;;;;;;;;5025967;28;20120;-80
2022/02/27 11:57:13;;;;;;;0.30;0.30;;;;;;;;;;5023622;28;20040;-80
2022/02/27 12:00:18;;;;;;;3.08;1.13;;;;;;;;;;5021530;28;20447;-80
2022/02/27 12:02:45;;;;;;;0.30;0.30;;;;;;;;;;4995048;28;20540;-81
2022/02/27 12:05:18;;;;;;;0.30;0.30;;;;;;;;;;4991071;28;20092;-87
2022/02/27 12:08:03;;;;;;;0.55;0.55;;;;;;;;;;4988435;28;20205;-80
2022/02/27 12:10:33;;;;;;;0.30;0.30;;;;;;;;;;4995165;28;20037;-81
2022/02/27 12:12:59;;;;;;;0.40;0.40;;;;;;;;;;4989813;28;20034;-80
2022/02/27 12:15:35;;;;;;;0.50;0.50;;;;;;;;;;4986829;28;20841;-80
2022/02/27 12:18:04;;;;;;;0.30;0.30;;;;;;;;;;4989700;28;20042;-80
2022/02/27 12:20:46;;;;;;;0.40;0.40;;;;;;;;;;4986849;28;20042;-81
2022/02/27 12:23:37;;;;;;;0.40;0.40;;;;;;;;;;4989248;28;20869;-81
2022/02/27 12:26:05;;;;;;;0.30;0.30;;;;;;;;;;4985520;28;20029;-80
2022/02/27 12:28:49;;;;;;;0.30;0.30;;;;;;;;;;4991204;28;21892;-80
2022/02/27 12:31:18;;;;;;;0.30;0.30;;;;;;;;;;4993661;28;20073;-80
2022/02/27 12:33:44;;;;;;;0.30;0.30;;;;;;;;;;4992571;28;20044;-80
2022/02/27 12:36:10;;;;;;;0.30;0.30;;;;;;;;;;4988290;28;20037;-80
2022/02/27 12:38:36;;;;;;;0.30;0.30;;;;;;;;;;5018404;28;20071;-79
2022/02/27 12:41:03;;;;;;;0.30;0.30;;;;;;;;;;5016038;28;20378;-79
2022/02/27 12:43:30;;;;;;;0.30;0.30;;;;;;;;;;5022562;28;20044;-80
2022/02/27 12:45:56;;;;;;;0.40;0.40;;;;;;;;;;5018308;28;20021;-80
2022/02/27 12:50:10;;;;;;;0.30;0.30;;;;;;;;;;5016622;28;20049;-80
2022/02/27 12:51:09;;;;;;;0.40;0.40;;;;;;;;;;5018730;28;20208;-80
2022/02/27 12:53:35;;;;;;;0.30;0.30;;;;;;;;;;5018767;28;20037;-79
2022/02/27 12:56:01;;;;;;;0.40;0.40;;;;;;;;;;5019051;28;20620;-80
2022/02/27 12:58:39;;;;;;;0.77;0.77;;;;;;;;;;5018837;28;20379;-80
2022/02/27 13:01:08;;;;;;;0.40;0.40;;;;;;;;;;5020608;28;20413;-79
2022/02/27 13:03:34;;;;;;;1.08;0.60;;;;;;;;;;5019556;28;20079;-79
2022/02/27 13:06:04;;;;;;;0.60;0.60;;;;;;;;;;5017444;28;20124;-82
2022/02/27 13:08:30;;;;;;;0.40;0.40;;;;;;;;;;5017777;28;20044;-82
2022/02/27 13:10:56;;;;;;;0.30;0.30;;;;;;;;;;5015979;28;20029;-81
2022/02/27 13:13:22;;;;;;;0.20;0.20;;;;;;;;;;5021659;28;20025;-81
2022/02/27 13:15:55;;;;;;;0.30;0.30;;;;;;;;;;5019922;28;20582;-82
2022/02/27 13:18:22;;;;;;;0.20;0.20;;;;;;;;;;5020483;28;20520;-82
2022/02/27 13:20:48;;;;;;;0.30;0.30;;;;;;;;;;5017671;28;20047;-84
2022/02/27 13:23:15;;;;;;;0.30;0.30;;;;;;;;;;5019838;28;20038;-83
2022/02/27 13:25:41;;;;;;;0.30;0.30;;;;;;;;;;5018879;28;20112;-83
2022/02/27 13:28:07;;;;;;;0.28;0.28;;;;;;;;;;5019554;28;20041;-83
2022/02/27 13:30:33;;;;;;;0.30;0.30;;;;;;;;;;5018925;28;20052;-83
2022/02/27 13:33:00;;;;;;;0.40;0.40;;;;;;;;;;5016262;28;20483;-83
2022/02/27 13:35:37;;;;;;;0.50;0.50;;;;;;;;;;5017417;28;20029;-83
2022/02/27 13:38:04;;;;;;;0.40;0.40;;;;;;;;;;5018947;28;20018;-78
2022/02/27 13:40:41;;;;;;;0.40;0.40;;;;;;;;;;5021898;28;20030;-78
2022/02/27 13:43:21;;;;;;;0.35;0.35;;;;;;;;;;5022100;28;20041;-81
2022/02/27 13:45:51;;;;;;;0.30;0.30;;;;;;;;;;5020155;28;20085;-80
2022/02/27 13:48:28;;;;;;;0.30;0.30;;;;;;;;;;5019297;28;20053;-80
2022/02/27 13:50:54;;;;;;;0.30;0.30;;;;;;;;;;5021237;28;20543;-80
2022/02/27 13:53:21;;;;;;;0.40;0.40;;;;;;;;;;5020384;28;20048;-80
2022/02/27 13:55:50;;;;;;;0.50;0.50;;;;;;;;;;5021154;28;20842;-80
2022/02/27 13:58:18;;;;;;;0.40;0.40;;;;;;;;;;5021659;28;20053;-80
2022/02/27 14:00:52;;;;;;;0.30;0.30;;;;;;;;;;5020221;28;20052;-81
2022/02/27 14:03:20;;;;;;;0.40;0.40;;;;;;;;;;5021517;28;20057;-80
2022/02/27 14:05:56;;;;;;;0.28;0.28;;;;;;;;;;5020001;28;20087;-81
2022/02/27 14:08:22;;;;;;;0.30;0.30;;;;;;;;;;5024810;28;20065;-80
2022/02/27 14:11:02;;;;;;;0.30;0.30;;;;;;;;;;5020234;28;20532;-80
2022/02/27 14:13:28;;;;;;;0.40;0.40;;;;;;;;;;5023349;28;20029;-81
2022/02/27 14:16:01;;;;;;;0.30;0.30;;;;;;;;;;5021293;28;20033;-80
2022/02/27 14:18:31;;;;;;;0.30;0.30;;;;;;;;;;5021479;28;20040;-80
2022/02/27 14:21:01;;;;;;;0.30;0.30;;;;;;;;;;5021463;28;20528;-80
2022/02/27 14:23:36;;;;;;;211.88;201.95;;;;;;;;;;5020231;28;20043;-81
2022/02/27 14:26:02;;;;;;;138.68;129.73;;;;;;;;;;5019849;28;20109;-83
2022/02/27 14:28:30;;;;;;;1999.90;999.90;;;;;;;;;;5021638;28;20084;-81
2022/02/27 14:31:06;;;;;;;1999.90;999.90;;;;;;;;;;5021298;28;20151;-81
2022/02/27 14:33:36;;;;;;;91.67;86.70;;;;;;;;;;5020343;28;20034;-81
2022/02/27 14:36:03;;;;;;;1.20;1.20;;;;;;;;;;5019496;28;20023;-82
2022/02/27 14:38:29;;;;;;;0.13;0.13;;;;;;;;;;5023347;28;20030;-81
2022/02/27 14:40:55;;;;;;;0.20;0.20;;;;;;;;;;5023084;28;20045;-81
2022/02/27 14:43:21;;;;;;;0.30;0.30;;;;;;;;;;5018609;28;20087;-82
2022/02/27 14:45:47;;;;;;;0.20;0.20;;;;;;;;;;5020874;28;20284;-82